^^
Meteo Knjazevac Station Historical Data
Daily Summary for March 12, 2021 Units:  Metric    English   Both
Daily Weekly Monthly Yearly Custom
  High: Low: Average:
Temperature: 12.6 °C -4.1 °C 0.4 °C
Dew Point: 7.1 °C -4.4 °C -0.7 °C
Humidity: 99% 69% 93%
Wind Speed: 9.7km/h 0km/h 1.8km/h
Wind Gust: 16.1km/h - -
Wind- - SSW
Pressure: 1027 hPa 1022.9 hPa -
Precipitation: 0 mm    
Historical Graphs
 
 
Tabular Data for March 12, 2021
Time Temperature Dew Point Pressure Wind Wind Speed Wind Gust Humidity Rainfall Rate (Hourly) solar Conditions
00:00 -1.7 °C -2 °C 1027 hPa WNW 1.6 km/h 6.4 km/h 98% 0 mm 0 W/m2
00:10 -1.8 °C -2.1 °C 1027 hPa WNW 1.6 km/h 3.2 km/h 98% 0 mm 0 W/m2
00:20 -1.9 °C -2.4 °C 1027 hPa WNW 1.6 km/h 3.2 km/h 96% 0 mm 0 W/m2
00:30 -2.1 °C -2.7 °C 1027 hPa WNW 3.2 km/h 8 km/h 96% 0 mm 0 W/m2
00:40 -2.1 °C -2.4 °C 1027 hPa WNW 3.2 km/h 4.8 km/h 98% 0 mm 0 W/m2
00:50 -2.2 °C -2.5 °C 1026.6 hPa WNW 1.6 km/h 3.2 km/h 98% 0 mm 0 W/m2
01:00 -2.3 °C -2.6 °C 1026.6 hPa Calm   3.2 km/h 98% 0 mm 0 W/m2
01:10 -2.3 °C -2.6 °C 1026.6 hPa NW 1.6 km/h 3.2 km/h 98% 0 mm 0 W/m2
01:20 -2.5 °C -2.8 °C 1026.6 hPa NW 1.6 km/h 4.8 km/h 98% 0 mm 0 W/m2
01:30 -2.5 °C -2.8 °C 1026.6 hPa Calm   3.2 km/h 98% 0 mm 0 W/m2
01:40 -2.6 °C -2.9 °C 1026.6 hPa West 3.2 km/h 4.8 km/h 98% 0 mm 0 W/m2
01:50 -2.7 °C -2.9 °C 1026.6 hPa WNW 3.2 km/h 6.4 km/h 98% 0 mm 0 W/m2
02:00 -2.8 °C -3.1 °C 1026.6 hPa NW 1.6 km/h 4.8 km/h 98% 0 mm 0 W/m2
02:10 -2.9 °C -3.2 °C 1026.3 hPa NW 1.6 km/h 3.2 km/h 98% 0 mm 0 W/m2
02:20 -3 °C -3.3 °C 1026.3 hPa Calm   3.2 km/h 98% 0 mm 0 W/m2
02:30 -3.1 °C -3.7 °C 1026.3 hPa Calm   3.2 km/h 96% 0 mm 0 W/m2
02:40 -3.2 °C -3.6 °C 1026.3 hPa Calm   3.2 km/h 97% 0 mm 0 W/m2
02:50 -3.2 °C -3.4 °C 1026 hPa Calm   3.2 km/h 98% 0 mm 0 W/m2
03:00 -3.3 °C -3.6 °C 1026 hPa WNW 1.6 km/h 3.2 km/h 98% 0 mm 0 W/m2
03:10 -3.3 °C -3.6 °C 1026 hPa WNW 3.2 km/h 4.8 km/h 98% 0 mm 0 W/m2
03:20 -3.3 °C -3.6 °C 1026 hPa West 1.6 km/h 3.2 km/h 98% 0 mm 0 W/m2
03:30 -3.4 °C -3.7 °C 1026 hPa NW 1.6 km/h 4.8 km/h 98% 0 mm 0 W/m2
03:40 -3.5 °C -3.8 °C 1026 hPa NNW 1.6 km/h 3.2 km/h 98% 0 mm 0 W/m2
03:50 -3.6 °C -3.8 °C 1026 hPa Calm   3.2 km/h 98% 0 mm 0 W/m2
04:00 -3.7 °C -3.9 °C 1026 hPa West 1.6 km/h 3.2 km/h 98% 0 mm 0 W/m2
04:10 -3.8 °C -4.1 °C 1026 hPa West 1.6 km/h 4.8 km/h 98% 0 mm 0 W/m2
04:20 -3.8 °C -4.1 °C 1025.6 hPa WNW 1.6 km/h 4.8 km/h 98% 0 mm 0 W/m2
04:30 -3.8 °C -4.1 °C 1025.6 hPa WNW 1.6 km/h 4.8 km/h 98% 0 mm 0 W/m2
04:40 -3.9 °C -4.2 °C 1025.6 hPa WNW 1.6 km/h 3.2 km/h 98% 0 mm 0 W/m2
04:50 -4 °C -4.3 °C 1025.6 hPa WNW 1.6 km/h 3.2 km/h 98% 0 mm 0 W/m2
05:00 -4.1 °C -4.4 °C 1025.6 hPa WNW 1.6 km/h 4.8 km/h 98% 0 mm 0 W/m2
05:10 -4.1 °C -4.4 °C 1025.6 hPa WNW 1.6 km/h 3.2 km/h 98% 0 mm 0 W/m2
05:20 -4 °C -4.3 °C 1025.6 hPa West 1.6 km/h 3.2 km/h 98% 0 mm 0 W/m2
05:30 -4.1 °C -4.4 °C 1025.3 hPa WNW 1.6 km/h 3.2 km/h 98% 0 mm 0 W/m2
05:40 -4 °C -4.1 °C 1025.6 hPa NW 3.2 km/h 4.8 km/h 99% 0 mm 0 W/m2
05:50 -3.8 °C -3.9 °C 1025.3 hPa Calm   3.2 km/h 99% 0 mm 0 W/m2
06:00 -3.8 °C -3.9 °C 1025.3 hPa Calm   3.2 km/h 99% 0 mm 0 W/m2
06:10 -3.8 °C -3.9 °C 1025.3 hPa NNW 1.6 km/h 3.2 km/h 99% 0 mm 0 W/m2
06:20 -3.9 °C -4.1 °C 1025.6 hPa Calm   3.2 km/h 99% 0 mm 0 W/m2
06:30 -3.9 °C -4.2 °C 1025.6 hPa NW 1.6 km/h 3.2 km/h 98% 0 mm 9 W/m2
06:40 -3.9 °C -4.2 °C 1025.6 hPa West 1.6 km/h 3.2 km/h 98% 0 mm 16 W/m2
06:50 -4 °C -4.3 °C 1025.6 hPa WNW 1.6 km/h 3.2 km/h 98% 0 mm 33 W/m2
07:00 -3.8 °C -4 °C 1025.6 hPa NW 1.6 km/h 4.8 km/h 99% 0 mm 51 W/m2
07:10 -3.7 °C -3.8 °C 1025.6 hPa Calm   1.6 km/h 99% 0 mm 70 W/m2
07:20 -3.6 °C -3.7 °C 1025.6 hPa Calm   3.2 km/h 99% 0 mm 74 W/m2
07:30 -3.3 °C -3.4 °C 1025.6 hPa NW 1.6 km/h 3.2 km/h 99% 0 mm 95 W/m2
07:40 -2.9 °C -3.1 °C 1025.6 hPa Calm   1.6 km/h 99% 0 mm 111 W/m2
07:50 -2.5 °C -2.6 °C 1025.6 hPa Calm   1.6 km/h 99% 0 mm 123 W/m2
08:00 -2.1 °C -2.2 °C 1025.6 hPa Calm   1.6 km/h 99% 0 mm 143 W/m2
08:10 -1.4 °C -1.6 °C 1025.6 hPa Calm   3.2 km/h 99% 0 mm 140 W/m2
08:20 -1.1 °C -1.2 °C 1025.3 hPa Calm   3.2 km/h 99% 0 mm 163 W/m2
08:30 -0.6 °C -0.7 °C 1025.3 hPa NW 1.6 km/h 3.2 km/h 99% 0 mm 180 W/m2
08:40 -0.1 °C -0.2 °C 1025.3 hPa Calm   3.2 km/h 99% 0 mm 222 W/m2
08:50 0.5 °C 0.4 °C 1025.3 hPa Calm   3.2 km/h 99% 0 mm 250 W/m2
09:00 1.1 °C 0.9 °C 1025.3 hPa North 1.6 km/h 4.8 km/h 99% 0 mm 271 W/m2
09:10 1.7 °C 1.4 °C 1024.9 hPa North 1.6 km/h 6.4 km/h 98% 0 mm 323 W/m2
09:30 3.3 °C 2.6 °C 1024.9 hPa North 3.2 km/h 8 km/h 95% 0 mm 354 W/m2
09:40 4.2 °C 3.1 °C 1024.9 hPa ESE 1.6 km/h 8 km/h 93% 0 mm 368 W/m2
09:50 4.7 °C 3.2 °C 1024.9 hPa NE 1.6 km/h 8 km/h 90% 0 mm 344 W/m2
10:00 5.2 °C 3.6 °C 1024.9 hPa NE 1.6 km/h 11.3 km/h 89% 0 mm 372 W/m2
10:10 5.8 °C 4.1 °C 1024.9 hPa NNE 1.6 km/h 8 km/h 89% 0 mm 360 W/m2
10:20 6.2 °C 4.1 °C 1024.6 hPa NE 3.2 km/h 11.3 km/h 86% 0 mm 305 W/m2
10:30 6.5 °C 4.2 °C 1024.6 hPa NNE 1.6 km/h 11.3 km/h 85% 0 mm 394 W/m2
10:40 6.9 °C 4.4 °C 1024.6 hPa NNE 1.6 km/h 8 km/h 84% 0 mm 366 W/m2
10:50 7.5 °C 4.8 °C 1024.6 hPa NE 3.2 km/h 9.7 km/h 83% 0 mm 428 W/m2
11:00 8.1 °C 5.1 °C 1024.3 hPa NE 3.2 km/h 9.7 km/h 81% 0 mm 430 W/m2
11:10 8.7 °C 5.5 °C 1024.3 hPa NNE 3.2 km/h 8 km/h 80% 0 mm 431 W/m2
11:20 9.3 °C 5.7 °C 1024.3 hPa NNE 4.8 km/h 11.3 km/h 78% 0 mm 275 W/m2
11:30 9.7 °C 5.7 °C 1023.9 hPa NNE 4.8 km/h 16.1 km/h 76% 0 mm 253 W/m2
11:40 10.3 °C 6.1 °C 1023.9 hPa NNE 4.8 km/h 11.3 km/h 75% 0 mm 376 W/m2
11:50 10.6 °C 5.9 °C 1023.6 hPa NNE 3.2 km/h 9.7 km/h 73% 0 mm 212 W/m2
12:00 10.8 °C 6.2 °C 1023.6 hPa North 3.2 km/h 8 km/h 73% 0 mm 179 W/m2
12:10 11.2 °C 6.6 °C 1023.2 hPa NE 4.8 km/h 12.9 km/h 73% 0 mm 292 W/m2
12:20 11.7 °C 6.8 °C 1023.2 hPa North 3.2 km/h 9.7 km/h 72% 0 mm 178 W/m2
12:30 11.9 °C 6.6 °C 1023.2 hPa North 3.2 km/h 9.7 km/h 70% 0 mm 256 W/m2
12:40 12.1 °C 6.8 °C 1023.2 hPa NE 9.7 km/h 14.5 km/h 70% 0 mm 375 W/m2
12:50 12.4 °C 6.9 °C 1022.9 hPa NE 1.6 km/h 12.9 km/h 69% 0 mm 362 W/m2
13:00 12.6 °C 7.1 °C 1022.9 hPa North 1.6 km/h 11.3 km/h 69% 0 mm 315 W/m2
Knjazevac, Serbia
Compliments of Weather Underground - 2 mb